sensor_id;sensor_type;location;lat;lon;timestamp;pressure;altitude;pressure_sealevel;temperature;humidity
80892;BME280;70343;51.530;5.050;2024-02-04T00:00:28;102381.69;;;9.92;100.00
80892;BME280;70343;51.530;5.050;2024-02-04T00:02:54;102398.16;;;9.93;100.00
80892;BME280;70343;51.530;5.050;2024-02-04T00:05:19;102384.97;;;9.94;100.00
80892;BME280;70343;51.530;5.050;2024-02-04T00:07:45;102398.84;;;9.95;100.00
80892;BME280;70343;51.530;5.050;2024-02-04T00:10:11;102378.78;;;9.95;100.00
80892;BME280;70343;51.530;5.050;2024-02-04T00:12:37;102387.44;;;9.96;100.00
80892;BME280;70343;51.530;5.050;2024-02-04T00:15:03;102381.09;;;9.98;100.00
80892;BME280;70343;51.530;5.050;2024-02-04T00:17:31;102384.66;;;9.97;100.00
80892;BME280;70343;51.530;5.050;2024-02-04T00:20:00;102387.28;;;9.97;100.00
80892;BME280;70343;51.530;5.050;2024-02-04T00:22:27;102385.81;;;9.95;100.00
80892;BME280;70343;51.530;5.050;2024-02-04T00:24:52;102389.34;;;9.94;100.00
80892;BME280;70343;51.530;5.050;2024-02-04T00:27:18;102383.31;;;9.93;100.00
80892;BME280;70343;51.530;5.050;2024-02-04T00:29:43;102383.31;;;9.93;100.00
80892;BME280;70343;51.530;5.050;2024-02-04T00:32:09;102384.97;;;9.94;100.00
80892;BME280;70343;51.530;5.050;2024-02-04T00:34:34;102388.53;;;9.93;100.00
80892;BME280;70343;51.530;5.050;2024-02-04T00:37:00;102384.31;;;9.92;100.00
80892;BME280;70343;51.530;5.050;2024-02-04T00:39:25;102385.91;;;9.93;100.00
80892;BME280;70343;51.530;5.050;2024-02-04T00:41:51;102382.38;;;9.94;100.00
80892;BME280;70343;51.530;5.050;2024-02-04T00:44:17;102384.97;;;9.94;100.00
80892;BME280;70343;51.530;5.050;2024-02-04T00:46:42;102388.53;;;9.93;100.00
80892;BME280;70343;51.530;5.050;2024-02-04T00:49:08;102385.91;;;9.93;100.00
80892;BME280;70343;51.530;5.050;2024-02-04T00:51:33;102398.94;;;9.93;100.00
80892;BME280;70343;51.530;5.050;2024-02-04T00:53:59;102397.31;;;9.92;100.00
80892;BME280;70343;51.530;5.050;2024-02-04T00:56:24;102397.31;;;9.92;100.00
80892;BME280;70343;51.530;5.050;2024-02-04T00:58:50;102400.88;;;9.91;100.00
80892;BME280;70343;51.530;5.050;2024-02-04T01:01:16;102394.03;;;9.90;100.00
80892;BME280;70343;51.530;5.050;2024-02-04T01:03:42;102381.03;;;9.90;100.00
80892;BME280;70343;51.530;5.050;2024-02-04T01:06:07;102396.81;;;9.88;100.00
80892;BME280;70343;51.530;5.050;2024-02-04T01:08:33;102372.53;;;9.88;100.00
80892;BME280;70343;51.530;5.050;2024-02-04T01:11:00;102373.47;;;9.87;100.00
80892;BME280;70343;51.530;5.050;2024-02-04T01:13:27;102364.72;;;9.88;100.00
80892;BME280;70343;51.530;5.050;2024-02-04T01:15:52;102359.50;;;9.88;100.00
80892;BME280;70343;51.530;5.050;2024-02-04T01:18:18;102357.84;;;9.87;100.00
80892;BME280;70343;51.530;5.050;2024-02-04T01:20:43;102357.84;;;9.87;100.00
80892;BME280;70343;51.530;5.050;2024-02-04T01:23:09;102352.63;;;9.87;100.00
80892;BME280;70343;51.530;5.050;2024-02-04T01:25:34;102345.81;;;9.86;100.00
80892;BME280;70343;51.530;5.050;2024-02-04T01:28:00;102342.22;;;9.87;100.00
80892;BME280;70343;51.530;5.050;2024-02-04T01:30:25;102356.22;;;9.86;100.00
80892;BME280;70343;51.530;5.050;2024-02-04T01:32:50;102352.78;;;9.85;100.00
80892;BME280;70343;51.530;5.050;2024-02-04T01:35:16;102362.25;;;9.86;100.00
80892;BME280;70343;51.530;5.050;2024-02-04T01:37:41;102369.09;;;9.87;100.00
80892;BME280;70343;51.530;5.050;2024-02-04T01:40:09;102366.66;;;9.86;100.00
80892;BME280;70343;51.530;5.050;2024-02-04T01:42:35;102366.91;;;9.83;100.00
80892;BME280;70343;51.530;5.050;2024-02-04T01:45:00;102375.41;;;9.85;100.00
80892;BME280;70343;51.530;5.050;2024-02-04T01:47:26;102374.63;;;9.84;100.00
80892;BME280;70343;51.530;5.050;2024-02-04T01:49:51;102372.13;;;9.83;100.00
80892;BME280;70343;51.530;5.050;2024-02-04T01:52:17;102374.63;;;9.84;100.00
80892;BME280;70343;51.530;5.050;2024-02-04T01:54:43;102365.28;;;9.82;100.00
80892;BME280;70343;51.530;5.050;2024-02-04T01:57:10;102371.34;;;9.82;100.00
80892;BME280;70343;51.530;5.050;2024-02-04T01:59:38;102364.63;;;9.80;100.00
80892;BME280;70343;51.530;5.050;2024-02-04T02:02:04;102378.47;;;9.80;100.00
80892;BME280;70343;51.530;5.050;2024-02-04T02:04:30;102378.31;;;9.82;100.00
80892;BME280;70343;51.530;5.050;2024-02-04T02:06:56;102374.09;;;9.81;100.00
80892;BME280;70343;51.530;5.050;2024-02-04T02:09:24;102371.50;;;9.81;100.00
80892;BME280;70343;51.530;5.050;2024-02-04T02:12:19;102372.06;;;9.75;100.00
80892;BME280;70343;51.530;5.050;2024-02-04T02:14:53;102367.81;;;9.74;100.00
80892;BME280;70343;51.530;5.050;2024-02-04T02:17:25;102372.50;;;9.70;100.00
80892;BME280;70343;51.530;5.050;2024-02-04T02:19:58;102366.75;;;9.67;100.00
80892;BME280;70343;51.530;5.050;2024-02-04T02:22:50;102380.06;;;9.64;100.00
80892;BME280;70343;51.530;5.050;2024-02-04T02:25:27;102378.59;;;9.61;100.00
80892;BME280;70343;51.530;5.050;2024-02-04T02:27:53;102375.31;;;9.59;100.00
80892;BME280;70343;51.530;5.050;2024-02-04T02:30:18;102380.63;;;9.58;100.00
80892;BME280;70343;51.530;5.050;2024-02-04T02:32:45;102374.75;;;9.56;100.00
80892;BME280;70343;51.530;5.050;2024-02-04T02:35:12;102387.78;;;9.56;100.00
80892;BME280;70343;51.530;5.050;2024-02-04T02:37:56;102372.28;;;9.54;100.00
80892;BME280;70343;51.530;5.050;2024-02-04T02:40:41;102360.09;;;9.55;100.00
80892;BME280;70343;51.530;5.050;2024-02-04T02:43:10;102368.88;;;9.54;100.00
80892;BME280;70343;51.530;5.050;2024-02-04T02:45:38;102370.66;;;9.53;100.00
80892;BME280;70343;51.530;5.050;2024-02-04T02:48:05;102365.31;;;9.55;100.00
80892;BME280;70343;51.530;5.050;2024-02-04T02:50:33;102360.25;;;9.53;100.00
80892;BME280;70343;51.530;5.050;2024-02-04T02:52:58;102356.16;;;9.51;100.00
80892;BME280;70343;51.530;5.050;2024-02-04T02:55:24;102360.84;;;9.47;100.00
80892;BME280;70343;51.530;5.050;2024-02-04T02:57:49;102368.50;;;9.49;100.00
80892;BME280;70343;51.530;5.050;2024-02-04T03:00:15;102366.56;;;9.51;100.00
80892;BME280;70343;51.530;5.050;2024-02-04T03:02:41;102364.13;;;9.49;100.00
80892;BME280;70343;51.530;5.050;2024-02-04T03:05:07;102368.19;;;9.52;100.00
80892;BME280;70343;51.530;5.050;2024-02-04T03:07:32;102358.06;;;9.49;100.00
80892;BME280;70343;51.530;5.050;2024-02-04T03:09:58;102355.84;;;9.54;100.00
80892;BME280;70343;51.530;5.050;2024-02-04T03:12:23;102355.06;;;9.53;100.00
80892;BME280;70343;51.530;5.050;2024-02-04T03:14:49;102367.91;;;9.55;100.00
80892;BME280;70343;51.530;5.050;2024-02-04T03:17:15;102373.94;;;9.55;100.00
80892;BME280;70343;51.530;5.050;2024-02-04T03:19:49;102367.75;;;9.56;100.00
80892;BME280;70343;51.530;5.050;2024-02-04T03:22:17;102373.81;;;9.57;100.00
80892;BME280;70343;51.530;5.050;2024-02-04T03:24:43;102364.06;;;9.59;100.00
80892;BME280;70343;51.530;5.050;2024-02-04T03:27:09;102357.19;;;9.58;100.00
80892;BME280;70343;51.530;5.050;2024-02-04T03:29:35;102356.09;;;9.60;100.00
80892;BME280;70343;51.530;5.050;2024-02-04T03:32:01;102358.84;;;9.59;100.00
80892;BME280;70343;51.530;5.050;2024-02-04T03:34:27;102353.66;;;9.59;100.00
80892;BME280;70343;51.530;5.050;2024-02-04T03:36:52;102350.72;;;9.62;100.00
80892;BME280;70343;51.530;5.050;2024-02-04T03:39:18;102355.94;;;9.62;100.00
80892;BME280;70343;51.530;5.050;2024-02-04T03:41:43;102352.53;;;9.61;100.00
80892;BME280;70343;51.530;5.050;2024-02-04T03:44:09;102348.97;;;9.62;100.00
80892;BME280;70343;51.530;5.050;2024-02-04T03:46:34;102335.94;;;9.62;100.00
80892;BME280;70343;51.530;5.050;2024-02-04T03:49:00;102341.00;;;9.64;100.00
80892;BME280;70343;51.530;5.050;2024-02-04T03:51:26;102348.81;;;9.64;100.00
80892;BME280;70343;51.530;5.050;2024-02-04T03:53:51;102350.63;;;9.63;100.00
80892;BME280;70343;51.530;5.050;2024-02-04T03:56:17;102337.44;;;9.65;100.00
80892;BME280;70343;51.530;5.050;2024-02-04T03:58:43;102333.06;;;9.65;100.00
80892;BME280;70343;51.530;5.050;2024-02-04T04:01:12;102340.72;;;9.67;100.00
80892;BME280;70343;51.530;5.050;2024-02-04T04:03:42;102346.59;;;9.69;100.00
80892;BME280;70343;51.530;5.050;2024-02-04T04:06:08;102347.84;;;9.65;100.00
80892;BME280;70343;51.530;5.050;2024-02-04T04:08:34;102348.22;;;9.70;100.00
80892;BME280;70343;51.530;5.050;2024-02-04T04:11:00;102357.03;;;9.69;100.00
80892;BME280;70343;51.530;5.050;2024-02-04T04:13:25;102352.47;;;9.71;100.00
80892;BME280;70343;51.530;5.050;2024-02-04T04:15:51;102345.34;;;9.73;100.00
80892;BME280;70343;51.530;5.050;2024-02-04T04:18:16;102334.94;;;9.73;100.00
80892;BME280;70343;51.530;5.050;2024-02-04T04:20:42;102344.38;;;9.74;100.00
80892;BME280;70343;51.530;5.050;2024-02-04T04:23:07;102342.59;;;9.74;100.00
80892;BME280;70343;51.530;5.050;2024-02-04T04:25:33;102326.97;;;9.74;100.00
80892;BME280;70343;51.530;5.050;2024-02-04T04:27:58;102337.06;;;9.77;100.00
80892;BME280;70343;51.530;5.050;2024-02-04T04:30:24;102332.84;;;9.76;100.00
80892;BME280;70343;51.530;5.050;2024-02-04T04:32:49;102322.56;;;9.75;100.00
80892;BME280;70343;51.530;5.050;2024-02-04T04:35:15;102314.75;;;9.75;100.00
80892;BME280;70343;51.530;5.050;2024-02-04T04:37:41;102305.81;;;9.77;100.00
80892;BME280;70343;51.530;5.050;2024-02-04T04:40:07;102293.09;;;9.74;100.00
80892;BME280;70343;51.530;5.050;2024-02-04T04:42:32;102293.78;;;9.76;100.00
80892;BME280;70343;51.530;5.050;2024-02-04T04:44:58;102288.84;;;9.73;100.00
80892;BME280;70343;51.530;5.050;2024-02-04T04:47:23;102291.31;;;9.75;100.00
80892;BME280;70343;51.530;5.050;2024-02-04T04:49:49;102276.94;;;9.71;100.00
80892;BME280;70343;51.530;5.050;2024-02-04T04:52:14;102290.50;;;9.74;100.00
80892;BME280;70343;51.530;5.050;2024-02-04T04:54:40;102299.25;;;9.73;100.00
80892;BME280;70343;51.530;5.050;2024-02-04T04:57:05;102293.09;;;9.74;100.00
80892;BME280;70343;51.530;5.050;2024-02-04T04:59:31;102292.13;;;9.75;100.00
80892;BME280;70343;51.530;5.050;2024-02-04T05:01:57;102296.22;;;9.78;100.00
80892;BME280;70343;51.530;5.050;2024-02-04T05:04:22;102292.94;;;9.76;100.00
80892;BME280;70343;51.530;5.050;2024-02-04T05:06:51;102297.03;;;9.78;100.00
80892;BME280;70343;51.530;5.050;2024-02-04T05:09:16;102300.75;;;9.76;100.00
80892;BME280;70343;51.530;5.050;2024-02-04T05:11:42;102300.75;;;9.76;100.00
80892;BME280;70343;51.530;5.050;2024-02-04T05:14:07;102296.66;;;9.73;100.00
80892;BME280;70343;51.530;5.050;2024-02-04T05:16:33;102301.75;;;9.75;100.00
80892;BME280;70343;51.530;5.050;2024-02-04T05:18:58;102301.75;;;9.75;100.00
80892;BME280;70343;51.530;5.050;2024-02-04T05:21:24;102298.47;;;9.73;100.00
80892;BME280;70343;51.530;5.050;2024-02-04T05:23:49;102299.13;;;9.75;100.00
80892;BME280;70343;51.530;5.050;2024-02-04T05:26:17;102293.25;;;9.73;100.00
80892;BME280;70343;51.530;5.050;2024-02-04T05:28:43;102308.88;;;9.73;100.00
80892;BME280;70343;51.530;5.050;2024-02-04T05:31:09;102308.22;;;9.71;100.00
80892;BME280;70343;51.530;5.050;2024-02-04T05:33:34;102313.41;;;9.71;100.00
80892;BME280;70343;51.530;5.050;2024-02-04T05:36:00;102313.41;;;9.71;100.00
80892;BME280;70343;51.530;5.050;2024-02-04T05:38:25;102304.78;;;9.70;100.00
80892;BME280;70343;51.530;5.050;2024-02-04T05:40:51;102292.69;;;9.69;100.00
80892;BME280;70343;51.530;5.050;2024-02-04T05:43:16;102301.50;;;9.68;100.00
80892;BME280;70343;51.530;5.050;2024-02-04T05:45:42;102297.25;;;9.67;100.00
80892;BME280;70343;51.530;5.050;2024-02-04T05:48:08;102296.44;;;9.67;100.00
80892;BME280;70343;51.530;5.050;2024-02-04T05:50:34;102294.78;;;9.66;100.00
80892;BME280;70343;51.530;5.050;2024-02-04T05:52:59;102290.94;;;9.70;100.00
80892;BME280;70343;51.530;5.050;2024-02-04T05:55:25;102286.81;;;9.67;100.00
80892;BME280;70343;51.530;5.050;2024-02-04T05:57:50;102290.25;;;9.68;100.00
80892;BME280;70343;51.530;5.050;2024-02-04T06:00:16;102279.84;;;9.68;100.00
80892;BME280;70343;51.530;5.050;2024-02-04T06:02:42;102278.88;;;9.69;100.00
80892;BME280;70343;51.530;5.050;2024-02-04T06:05:14;102285.72;;;9.70;100.00
80892;BME280;70343;51.530;5.050;2024-02-04T06:07:39;102285.72;;;9.70;100.00
80892;BME280;70343;51.530;5.050;2024-02-04T06:10:10;102284.75;;;9.71;100.00
80892;BME280;70343;51.530;5.050;2024-02-04T06:12:36;102277.91;;;9.70;100.00
80892;BME280;70343;51.530;5.050;2024-02-04T06:15:03;102276.28;;;9.69;100.00
80892;BME280;70343;51.530;5.050;2024-02-04T06:17:29;102270.09;;;9.70;100.00
80892;BME280;70343;51.530;5.050;2024-02-04T06:19:54;102268.47;;;9.69;100.00
80892;BME280;70343;51.530;5.050;2024-02-04T06:22:20;102273.69;;;9.69;100.00
80892;BME280;70343;51.530;5.050;2024-02-04T06:24:45;102259.81;;;9.68;100.00
80892;BME280;70343;51.530;5.050;2024-02-04T06:27:11;102259.97;;;9.67;100.00
80892;BME280;70343;51.530;5.050;2024-02-04T06:29:36;102266.81;;;9.68;100.00
80892;BME280;70343;51.530;5.050;2024-02-04T06:32:02;102272.03;;;9.68;100.00
80892;BME280;70343;51.530;5.050;2024-02-04T06:34:28;102262.59;;;9.67;100.00
80892;BME280;70343;51.530;5.050;2024-02-04T06:36:54;102264.22;;;9.68;100.00
80892;BME280;70343;51.530;5.050;2024-02-04T06:39:20;102259.81;;;9.68;100.00
80892;BME280;70343;51.530;5.050;2024-02-04T06:41:45;102266.66;;;9.69;100.00
80892;BME280;70343;51.530;5.050;2024-02-04T06:44:11;102265.19;;;9.67;100.00
80892;BME280;70343;51.530;5.050;2024-02-04T06:46:37;102250.50;;;9.66;100.00
80892;BME280;70343;51.530;5.050;2024-02-04T06:49:02;102251.03;;;9.69;100.00
80892;BME280;70343;51.530;5.050;2024-02-04T06:51:28;102258.84;;;9.69;100.00
80892;BME280;70343;51.530;5.050;2024-02-04T06:53:54;102257.22;;;9.68;100.00
80892;BME280;70343;51.530;5.050;2024-02-04T06:56:19;102265.84;;;9.69;100.00
80892;BME280;70343;51.530;5.050;2024-02-04T06:58:44;102271.06;;;9.69;100.00
80892;BME280;70343;51.530;5.050;2024-02-04T07:01:11;102261.59;;;9.68;100.00
80892;BME280;70343;51.530;5.050;2024-02-04T07:03:36;102261.59;;;9.68;100.00
80892;BME280;70343;51.530;5.050;2024-02-04T07:06:02;102272.03;;;9.68;100.00
80892;BME280;70343;51.530;5.050;2024-02-04T07:08:27;102268.47;;;9.69;100.00
80892;BME280;70343;51.530;5.050;2024-02-04T07:10:53;102267.63;;;9.68;100.00
80892;BME280;70343;51.530;5.050;2024-02-04T07:13:18;102260.66;;;9.69;100.00
80892;BME280;70343;51.530;5.050;2024-02-04T07:15:44;102256.41;;;9.68;100.00
80892;BME280;70343;51.530;5.050;2024-02-04T07:18:10;102268.47;;;9.69;100.00
80892;BME280;70343;51.530;5.050;2024-02-04T07:20:35;102265.84;;;9.69;100.00
80892;BME280;70343;51.530;5.050;2024-02-04T07:23:01;102252.84;;;9.69;100.00
80892;BME280;70343;51.530;5.050;2024-02-04T07:25:26;102267.63;;;9.68;100.00
80892;BME280;70343;51.530;5.050;2024-02-04T07:27:54;102251.84;;;9.70;100.00
80892;BME280;70343;51.530;5.050;2024-02-04T07:30:20;102257.22;;;9.68;100.00
80892;BME280;70343;51.530;5.050;2024-02-04T07:32:46;102253.50;;;9.71;100.00
80892;BME280;70343;51.530;5.050;2024-02-04T07:35:11;102255.97;;;9.72;100.00
80892;BME280;70343;51.530;5.050;2024-02-04T07:37:37;102256.78;;;9.73;100.00
80892;BME280;70343;51.530;5.050;2024-02-04T07:40:03;102251.25;;;9.76;100.00
80892;BME280;70343;51.530;5.050;2024-02-04T07:42:30;102240.56;;;9.79;100.00
80892;BME280;70343;51.530;5.050;2024-02-04T07:44:56;102250.31;;;9.77;100.00
80892;BME280;70343;51.530;5.050;2024-02-04T07:47:22;102252.91;;;9.77;100.00
80892;BME280;70343;51.530;5.050;2024-02-04T07:49:48;102251.94;;;9.78;100.00
80892;BME280;70343;51.530;5.050;2024-02-04T07:52:14;102259.47;;;9.81;100.00
80892;BME280;70343;51.530;5.050;2024-02-04T07:54:39;102249.34;;;9.78;100.00
80892;BME280;70343;51.530;5.050;2024-02-04T07:57:05;102259.59;;;9.79;100.00
80892;BME280;70343;51.530;5.050;2024-02-04T07:59:30;102242.19;;;9.80;100.00
80892;BME280;70343;51.530;5.050;2024-02-04T08:01:56;102257.50;;;9.83;100.00
80892;BME280;70343;51.530;5.050;2024-02-04T08:04:22;102252.00;;;9.86;100.00
80892;BME280;70343;51.530;5.050;2024-02-04T08:06:47;102242.41;;;9.86;100.00
80892;BME280;70343;51.530;5.050;2024-02-04T08:09:13;102252.84;;;9.86;100.00
80892;BME280;70343;51.530;5.050;2024-02-04T08:11:38;102237.22;;;9.86;100.00
80892;BME280;70343;51.530;5.050;2024-02-04T08:14:04;102238.81;;;9.87;100.00
80892;BME280;70343;51.530;5.050;2024-02-04T08:16:29;102230.06;;;9.88;100.00
80892;BME280;70343;51.530;5.050;2024-02-04T08:18:55;102234.44;;;9.88;100.00
80892;BME280;70343;51.530;5.050;2024-02-04T08:21:21;102228.91;;;9.91;100.00
80892;BME280;70343;51.530;5.050;2024-02-04T08:23:46;102244.78;;;9.98;100.00
80892;BME280;70343;51.530;5.050;2024-02-04T08:26:12;102231.91;;;9.96;100.00
80892;BME280;70343;51.530;5.050;2024-02-04T08:28:38;102231.91;;;9.96;100.00
80892;BME280;70343;51.530;5.050;2024-02-04T08:31:03;102243.97;;;9.97;100.00
80892;BME280;70343;51.530;5.050;2024-02-04T08:33:29;102251.78;;;9.97;100.00
80892;BME280;70343;51.530;5.050;2024-02-04T08:35:54;102259.00;;;10.03;100.00
80892;BME280;70343;51.530;5.050;2024-02-04T08:38:20;102255.72;;;10.01;100.00
80892;BME280;70343;51.530;5.050;2024-02-04T08:40:45;102254.88;;;10.01;100.00
80892;BME280;70343;51.530;5.050;2024-02-04T08:43:11;102260.41;;;9.98;100.00
80892;BME280;70343;51.530;5.050;2024-02-04T08:45:36;102261.25;;;9.98;100.00
80892;BME280;70343;51.530;5.050;2024-02-04T08:48:02;102259.31;;;10.00;100.00
80892;BME280;70343;51.530;5.050;2024-02-04T08:50:28;102269.81;;;10.08;100.00
80892;BME280;70343;51.530;5.050;2024-02-04T08:52:54;102271.88;;;10.05;100.00
80892;BME280;70343;51.530;5.050;2024-02-04T08:55:19;102266.59;;;10.14;100.00
80892;BME280;70343;51.530;5.050;2024-02-04T08:57:45;102259.44;;;10.16;100.00
80892;BME280;70343;51.530;5.050;2024-02-04T09:00:13;102264.66;;;10.16;100.00
80892;BME280;70343;51.530;5.050;2024-02-04T09:02:39;102269.06;;;10.16;100.00
80892;BME280;70343;51.530;5.050;2024-02-04T09:05:06;102273.47;;;10.15;100.00
80892;BME280;70343;51.530;5.050;2024-02-04T09:07:31;102272.34;;;10.18;100.00
80892;BME280;70343;51.530;5.050;2024-02-04T09:09:57;102271.81;;;10.14;100.00
80892;BME280;70343;51.530;5.050;2024-02-04T09:12:22;102268.25;;;10.15;100.00
80892;BME280;70343;51.530;5.050;2024-02-04T09:14:48;102270.84;;;10.15;100.00
80892;BME280;70343;51.530;5.050;2024-02-04T09:17:13;102263.34;;;10.12;100.00
80892;BME280;70343;51.530;5.050;2024-02-04T09:19:39;102262.44;;;10.21;100.00
80892;BME280;70343;51.530;5.050;2024-02-04T09:22:05;102262.72;;;10.18;100.00
80892;BME280;70343;51.530;5.050;2024-02-04T09:24:30;102267.13;;;10.18;100.00
80892;BME280;70343;51.530;5.050;2024-02-04T09:26:56;102243.53;;;10.19;100.00
80892;BME280;70343;51.530;5.050;2024-02-04T09:29:21;102244.84;;;10.23;100.00
80892;BME280;70343;51.530;5.050;2024-02-04T09:31:47;102252.69;;;10.23;100.00
80892;BME280;70343;51.530;5.050;2024-02-04T09:34:14;102252.84;;;10.22;100.00
80892;BME280;70343;51.530;5.050;2024-02-04T09:36:40;102243.19;;;10.22;100.00
80892;BME280;70343;51.530;5.050;2024-02-04T09:39:05;102233.31;;;10.26;100.00
80892;BME280;70343;51.530;5.050;2024-02-04T09:41:31;102232.66;;;10.24;100.00
80892;BME280;70343;51.530;5.050;2024-02-04T09:43:58;102245.38;;;10.27;100.00
80892;BME280;70343;51.530;5.050;2024-02-04T09:46:25;102239.81;;;10.22;100.00
80892;BME280;70343;51.530;5.050;2024-02-04T09:48:51;102237.31;;;10.20;100.00
80892;BME280;70343;51.530;5.050;2024-02-04T09:51:17;102246.28;;;10.18;100.00
80892;BME280;70343;51.530;5.050;2024-02-04T09:53:44;102238.59;;;10.16;100.00
80892;BME280;70343;51.530;5.050;2024-02-04T09:56:11;102243.28;;;10.13;100.00
80892;BME280;70343;51.530;5.050;2024-02-04T09:58:37;102251.78;;;10.15;100.00
80892;BME280;70343;51.530;5.050;2024-02-04T10:01:04;102243.00;;;10.16;100.00
80892;BME280;70343;51.530;5.050;2024-02-04T10:03:30;102261.38;;;10.14;100.00
80892;BME280;70343;51.530;5.050;2024-02-04T10:05:56;102264.97;;;10.13;100.00
80892;BME280;70343;51.530;5.050;2024-02-04T10:08:22;102268.41;;;10.14;100.00
80892;BME280;70343;51.530;5.050;2024-02-04T10:10:48;102250.97;;;10.14;100.00
80892;BME280;70343;51.530;5.050;2024-02-04T10:13:14;102258.94;;;10.13;100.00
80892;BME280;70343;51.530;5.050;2024-02-04T10:15:39;102250.00;;;10.15;100.00
80892;BME280;70343;51.530;5.050;2024-02-04T10:18:06;102236.97;;;10.15;100.00
80892;BME280;70343;51.530;5.050;2024-02-04T10:20:32;102238.59;;;10.16;100.00
80892;BME280;70343;51.530;5.050;2024-02-04T10:22:59;102250.69;;;10.17;100.00
80892;BME280;70343;51.530;5.050;2024-02-04T10:25:26;102247.09;;;10.18;100.00
80892;BME280;70343;51.530;5.050;2024-02-04T10:27:52;102251.34;;;10.19;100.00
80892;BME280;70343;51.530;5.050;2024-02-04T10:30:19;102253.28;;;10.17;100.00
80892;BME280;70343;51.530;5.050;2024-02-04T10:32:45;102236.66;;;10.18;100.00
80892;BME280;70343;51.530;5.050;2024-02-04T10:35:11;102248.72;;;10.19;100.00
80892;BME280;70343;51.530;5.050;2024-02-04T10:37:37;102253.13;;;10.19;100.00
80892;BME280;70343;51.530;5.050;2024-02-04T10:40:02;102252.84;;;10.22;100.00
80892;BME280;70343;51.530;5.050;2024-02-04T10:42:29;102252.75;;;10.31;100.00
80892;BME280;70343;51.530;5.050;2024-02-04T10:44:57;102247.97;;;10.27;100.00
80892;BME280;70343;51.530;5.050;2024-02-04T10:47:30;102240.91;;;10.19;100.00
80892;BME280;70343;51.530;5.050;2024-02-04T10:49:58;102249.41;;;10.21;100.00
80892;BME280;70343;51.530;5.050;2024-02-04T10:52:27;102241.41;;;10.23;100.00
80892;BME280;70343;51.530;5.050;2024-02-04T10:54:53;102245.19;;;10.28;100.00
80892;BME280;70343;51.530;5.050;2024-02-04T10:57:22;102243.44;;;10.29;100.00
80892;BME280;70343;51.530;5.050;2024-02-04T10:59:56;102233.88;;;10.37;100.00
80892;BME280;70343;51.530;5.050;2024-02-04T11:02:23;102243.94;;;10.32;100.00
80892;BME280;70343;51.530;5.050;2024-02-04T11:04:49;102243.66;;;10.35;100.00
80892;BME280;70343;51.530;5.050;2024-02-04T11:07:17;102240.38;;;10.33;100.00
80892;BME280;70343;51.530;5.050;2024-02-04T11:09:45;102243.31;;;10.38;100.00
80892;BME280;70343;51.530;5.050;2024-02-04T11:12:14;102234.53;;;10.39;100.00
80892;BME280;70343;51.530;5.050;2024-02-04T11:14:45;102221.03;;;10.44;100.00
80892;BME280;70343;51.530;5.050;2024-02-04T11:17:17;102235.56;;;10.46;100.00
80892;BME280;70343;51.530;5.050;2024-02-04T11:20:15;102226.13;;;10.45;100.00
80892;BME280;70343;51.530;5.050;2024-02-04T11:25:41;102228.91;;;10.52;100.00
80892;BME280;70343;51.530;5.050;2024-02-04T11:28:10;102219.28;;;10.52;100.00
80892;BME280;70343;51.530;5.050;2024-02-04T11:30:36;102220.78;;;10.55;100.00
80892;BME280;70343;51.530;5.050;2024-02-04T11:33:06;102219.97;;;10.54;100.00
80892;BME280;70343;51.530;5.050;2024-02-04T11:35:35;102217.56;;;10.61;100.00
80892;BME280;70343;51.530;5.050;2024-02-04T11:38:02;102221.94;;;10.60;100.00
80892;BME280;70343;51.530;5.050;2024-02-04T11:40:34;102220.00;;;10.62;100.00
80892;BME280;70343;51.530;5.050;2024-02-04T11:43:23;102211.69;;;10.67;100.00
80892;BME280;70343;51.530;5.050;2024-02-04T11:45:52;102210.91;;;10.66;100.00
80892;BME280;70343;51.530;5.050;2024-02-04T11:48:19;102213.84;;;10.71;100.00
80892;BME280;70343;51.530;5.050;2024-02-04T11:50:52;102210.56;;;10.69;100.00
80892;BME280;70343;51.530;5.050;2024-02-04T11:53:18;102201.63;;;10.72;100.00
80892;BME280;70343;51.530;5.050;2024-02-04T11:55:44;102200.97;;;10.70;100.00
80892;BME280;70343;51.530;5.050;2024-02-04T11:58:11;102190.38;;;10.71;100.00
80892;BME280;70343;51.530;5.050;2024-02-04T12:00:37;102197.06;;;10.74;100.00
80892;BME280;70343;51.530;5.050;2024-02-04T12:03:04;102189.25;;;10.74;100.00
80892;BME280;70343;51.530;5.050;2024-02-04T12:05:36;102200.63;;;10.73;100.00
80892;BME280;70343;51.530;5.050;2024-02-04T12:08:06;102195.63;;;10.80;100.00
80892;BME280;70343;51.530;5.050;2024-02-04T12:10:36;102196.91;;;10.75;100.00
80892;BME280;70343;51.530;5.050;2024-02-04T12:13:05;102193.19;;;10.78;100.00
80892;BME280;70343;51.530;5.050;2024-02-04T12:15:34;102190.06;;;10.83;100.00
80892;BME280;70343;51.530;5.050;2024-02-04T12:18:09;102185.53;;;10.85;100.00
80892;BME280;70343;51.530;5.050;2024-02-04T12:20:36;102188.78;;;10.87;100.00
80892;BME280;70343;51.530;5.050;2024-02-04T12:23:05;102188.47;;;10.82;100.00
80892;BME280;70343;51.530;5.050;2024-02-04T12:25:32;102181.94;;;10.86;100.00
80892;BME280;70343;51.530;5.050;2024-02-04T12:27:59;102182.91;;;10.85;100.00
80892;BME280;70343;51.530;5.050;2024-02-04T12:30:26;102177.56;;;10.86;100.00
80892;BME280;70343;51.530;5.050;2024-02-04T12:33:02;102188.16;;;10.93;100.00
80892;BME280;70343;51.530;5.050;2024-02-04T12:35:29;102177.44;;;11.04;100.00
80892;BME280;70343;51.530;5.050;2024-02-04T12:37:57;102177.97;;;11.15;100.00
80892;BME280;70343;51.530;5.050;2024-02-04T12:40:24;102174.56;;;11.23;100.00
80892;BME280;70343;51.530;5.050;2024-02-04T12:43:16;102159.06;;;11.37;100.00
80892;BME280;70343;51.530;5.050;2024-02-04T12:45:41;102149.63;;;11.44;100.00
80892;BME280;70343;51.530;5.050;2024-02-04T12:48:08;102153.38;;;11.50;100.00